GOA weather

Genoa Cristoforo Colombo Airport
Genova, Liguria, Italy

Public forecast

Using degrees Celsius for public forecast. Weather courtesy of forecast.io.

METAR (pilot weather report)

Retrieved 2019/03/22 13:20 UTC (28 minutes ago):

LIMJ 221320Z 36010KT 320V040 CAVOK 21/M02 Q1026

TAF (pilot weather forecast)

Retrieved 2019/03/22 12:22 UTC (1 hour ago):

TAF LIMJ 221100Z 2212/2312 02010KT CAVOK TEMPO 2212/2218 02015G25KT